createdAt,value
2023-03-26T00:01:02.717Z,67.60
2023-03-26T00:02:08.238Z,75.88
2023-03-26T00:03:15.247Z,73.80
2023-03-26T00:04:21.390Z,76.18
2023-03-26T00:05:28.113Z,73.55
2023-03-26T00:06:36.357Z,75.57
2023-03-26T00:07:44.959Z,76.18
2023-03-26T00:08:50.400Z,75.57
2023-03-26T00:09:57.384Z,75.97
2023-03-26T00:11:02.699Z,76.50
2023-03-26T00:12:09.536Z,71.93
2023-03-26T00:13:14.916Z,73.03
2023-03-26T00:14:21.738Z,74.35
2023-03-26T00:15:27.057Z,73.20
2023-03-26T00:16:35.183Z,70.75
2023-03-26T00:17:40.574Z,73.63
2023-03-26T00:18:47.592Z,70.82
2023-03-26T00:19:52.999Z,68.47
2023-03-26T00:20:59.812Z,65.03
2023-03-26T00:22:06.555Z,65.40
2023-03-26T00:23:13.609Z,67.60
2023-03-26T00:24:20.264Z,68.85
2023-03-26T00:25:26.014Z,65.40
2023-03-26T00:26:32.805Z,67.13
2023-03-26T00:27:39.616Z,64.63
2023-03-26T00:28:45.475Z,63.72
2023-03-26T00:29:52.182Z,62.80
2023-03-26T00:31:01.902Z,69.05
2023-03-26T00:32:09.125Z,65.15
2023-03-26T00:33:14.480Z,64.68
2023-03-26T00:34:22.274Z,67.23
2023-03-26T00:35:28.005Z,65.43
2023-03-26T00:36:37.295Z,66.65
2023-03-26T00:37:43.961Z,65.45
2023-03-26T00:38:54.467Z,66.68
2023-03-26T00:40:06.224Z,65.72
2023-03-26T00:41:19.234Z,62.17
2023-03-26T00:42:25.951Z,66.68
2023-03-26T00:43:34.309Z,66.80
2023-03-26T00:44:41.005Z,65.93
2023-03-26T00:45:46.308Z,70.20
2023-03-26T00:46:52.985Z,66.75
2023-03-26T00:47:58.467Z,67.75
2023-03-26T00:49:05.557Z,70.05
2023-03-26T00:50:16.856Z,76.10
2023-03-26T00:51:25.037Z,64.43
2023-03-26T00:52:31.248Z,72.78
2023-03-26T00:53:39.771Z,67.28
2023-03-26T00:54:46.880Z,65.60
2023-03-26T00:55:53.768Z,65.32
2023-03-26T00:57:01.360Z,61.07
2023-03-26T00:58:08.115Z,64.60
2023-03-26T00:59:14.808Z,62.13
2023-03-26T01:00:22.034Z,54.58
2023-03-26T01:01:30.574Z,64.45
2023-03-26T01:02:36.063Z,61.17
2023-03-26T01:03:50.064Z,50.75
2023-03-26T01:05:05.458Z,53.38
2023-03-26T01:06:13.207Z,51.60
2023-03-26T01:07:23.352Z,52.35
2023-03-26T01:08:32.652Z,53.60
2023-03-26T01:09:44.141Z,52.40
2023-03-26T01:10:52.735Z,50.22
2023-03-26T01:11:59.506Z,54.30
2023-03-26T01:13:04.935Z,52.38
2023-03-26T01:14:15.066Z,55.95
2023-03-26T01:15:20.506Z,55.72
2023-03-26T01:16:30.683Z,58.85
2023-03-26T01:17:36.203Z,55.67
2023-03-26T01:18:44.732Z,64.47
2023-03-26T01:19:53.806Z,60.70
2023-03-26T01:21:06.549Z,64.47
2023-03-26T01:22:16.141Z,60.38
2023-03-26T01:23:25.058Z,59.30
2023-03-26T01:24:33.473Z,61.28
2023-03-26T01:25:43.987Z,57.22
2023-03-26T01:27:11.117Z,61.97
2023-03-26T01:28:19.004Z,58.97
2023-03-26T01:29:33.193Z,63.70
2023-03-26T01:30:43.879Z,59.95
2023-03-26T01:31:58.918Z,64.47
2023-03-26T01:33:06.655Z,67.60
2023-03-26T01:34:18.585Z,62.80
2023-03-26T01:35:32.036Z,66.70
2023-03-26T01:36:44.129Z,61.83
2023-03-26T01:38:00.983Z,59.80
2023-03-26T01:39:10.269Z,63.55
2023-03-26T01:40:21.541Z,63.08
2023-03-26T01:41:33.201Z,65.28
2023-03-26T01:42:43.702Z,61.88
2023-03-26T01:43:51.767Z,62.43
2023-03-26T01:45:01.466Z,66.72
2023-03-26T01:46:08.323Z,67.82
2023-03-26T01:47:15.989Z,64.40
2023-03-26T01:48:21.386Z,64.13
2023-03-26T01:49:28.137Z,66.85
2023-03-26T01:50:33.471Z,69.35
2023-03-26T01:51:40.419Z,65.60
2023-03-26T01:52:45.720Z,61.92
2023-03-26T01:53:52.684Z,66.10
2023-03-26T01:54:59.114Z,63.77
2023-03-26T01:56:16.793Z,64.65
2023-03-26T01:57:27.960Z,61.03
2023-03-26T01:58:39.416Z,64.25
2023-03-26T01:59:59.313Z,60.17
2023-03-26T02:01:14.632Z,61.85
2023-03-26T02:02:25.010Z,59.78
2023-03-26T02:03:34.785Z,63.55
2023-03-26T02:04:45.216Z,61.13
2023-03-26T02:05:56.617Z,61.85
2023-03-26T02:07:07.286Z,61.53
2023-03-26T02:08:22.540Z,61.17
2023-03-26T02:09:31.575Z,60.38
2023-03-26T02:10:41.715Z,64.50
2023-03-26T02:11:50.288Z,59.30
2023-03-26T02:12:57.342Z,64.95
2023-03-26T02:14:02.596Z,66.13
2023-03-26T02:15:10.434Z,60.88
2023-03-26T02:16:18.088Z,57.13
2023-03-26T02:17:25.696Z,57.40
2023-03-26T02:18:37.748Z,59.13
2023-03-26T02:19:44.982Z,55.95
2023-03-26T02:20:50.667Z,56.85
2023-03-26T02:22:01.187Z,53.88
2023-03-26T02:23:07.288Z,52.10
2023-03-26T02:24:14.086Z,51.40
2023-03-26T02:25:20.760Z,51.90
2023-03-26T02:26:28.065Z,47.45
2023-03-26T02:27:35.556Z,48.25
2023-03-26T02:28:42.642Z,46.75
2023-03-26T02:29:49.188Z,46.47
2023-03-26T02:30:59.155Z,45.10
2023-03-26T02:32:06.350Z,43.72
2023-03-26T02:33:16.918Z,46.47
2023-03-26T02:34:22.577Z,43.60
2023-03-26T02:35:29.671Z,46.00
2023-03-26T02:36:35.127Z,47.28
2023-03-26T02:37:41.896Z,45.20
2023-03-26T02:38:47.258Z,47.33
2023-03-26T02:39:54.122Z,45.08
2023-03-26T02:40:59.474Z,46.67
2023-03-26T02:42:06.188Z,44.22
2023-03-26T02:43:13.184Z,44.50
2023-03-26T02:44:19.847Z,43.65
2023-03-26T02:45:25.271Z,45.08
2023-03-26T02:46:31.887Z,49.10
2023-03-26T02:47:37.247Z,45.78
2023-03-26T02:48:45.447Z,46.08
2023-03-26T02:49:50.812Z,43.70
2023-03-26T02:50:57.541Z,44.45
2023-03-26T02:52:02.946Z,48.47
2023-03-26T02:53:09.631Z,48.75
2023-03-26T02:54:17.833Z,50.15
2023-03-26T02:55:23.106Z,45.90
2023-03-26T02:56:29.936Z,44.13
2023-03-26T02:57:35.634Z,45.08
2023-03-26T02:58:44.197Z,42.58
2023-03-26T02:59:51.911Z,44.55
2023-03-26T03:00:58.579Z,41.28
2023-03-26T03:02:03.973Z,39.95
2023-03-26T03:03:11.124Z,39.23
2023-03-26T03:04:16.535Z,39.58
2023-03-26T03:05:27.772Z,39.97
2023-03-26T03:06:34.012Z,41.15
2023-03-26T03:07:40.672Z,40.38
2023-03-26T03:08:47.653Z,40.60
2023-03-26T03:09:54.269Z,39.08
2023-03-26T03:11:00.895Z,36.95
2023-03-26T03:12:07.825Z,36.65
2023-03-26T03:13:13.201Z,39.63
2023-03-26T03:14:21.675Z,37.93
2023-03-26T03:15:26.941Z,36.83
2023-03-26T03:16:33.926Z,35.28
2023-03-26T03:17:39.275Z,36.63
2023-03-26T03:18:45.956Z,36.90
2023-03-26T03:19:51.204Z,35.05
2023-03-26T03:20:57.956Z,36.90
2023-03-26T03:22:03.244Z,37.00
2023-03-26T03:23:09.869Z,35.80
2023-03-26T03:24:19.782Z,34.72
2023-03-26T03:25:25.065Z,35.37
2023-03-26T03:26:32.064Z,36.03
2023-03-26T03:27:40.751Z,34.67
2023-03-26T03:28:48.313Z,33.22
2023-03-26T03:29:57.289Z,34.50
2023-03-26T03:31:03.887Z,31.55
2023-03-26T03:32:09.136Z,31.55
2023-03-26T03:33:15.996Z,30.40
2023-03-26T03:34:21.632Z,33.95
2023-03-26T03:35:29.205Z,31.17
2023-03-26T03:36:39.793Z,34.57
2023-03-26T03:37:45.240Z,36.13
2023-03-26T03:38:52.404Z,38.15
2023-03-26T03:39:57.784Z,40.92
2023-03-26T03:41:04.378Z,39.15
2023-03-26T03:42:09.645Z,40.08
2023-03-26T03:43:16.332Z,37.88
2023-03-26T03:44:21.616Z,39.75
2023-03-26T03:45:29.959Z,36.80
2023-03-26T03:46:36.705Z,38.70
2023-03-26T03:47:42.196Z,40.63
2023-03-26T03:48:51.257Z,36.77
2023-03-26T03:49:57.992Z,41.17
2023-03-26T03:51:04.671Z,38.25
2023-03-26T03:52:10.286Z,42.10
2023-03-26T03:53:17.458Z,40.25
2023-03-26T03:54:22.720Z,37.53
2023-03-26T03:55:30.278Z,38.50
2023-03-26T03:56:37.544Z,39.95
2023-03-26T03:57:43.023Z,42.00
2023-03-26T03:58:49.956Z,40.87
2023-03-26T03:59:55.506Z,40.13
2023-03-26T04:01:04.770Z,40.53
2023-03-26T04:02:12.554Z,37.97
2023-03-26T04:03:19.575Z,39.70
2023-03-26T04:04:39.585Z,40.33
2023-03-26T04:05:50.823Z,39.15
2023-03-26T04:06:56.083Z,40.28
2023-03-26T04:08:02.846Z,42.17
2023-03-26T04:09:08.079Z,40.38
2023-03-26T04:10:18.565Z,40.60
2023-03-26T04:11:23.798Z,41.73
2023-03-26T04:12:31.289Z,40.88
2023-03-26T04:13:36.578Z,41.60
2023-03-26T04:14:43.168Z,39.40
2023-03-26T04:15:58.173Z,41.53
2023-03-26T04:17:07.502Z,40.78
2023-03-26T04:18:13.320Z,40.70
2023-03-26T04:19:19.960Z,42.35
2023-03-26T04:20:25.215Z,41.65
2023-03-26T04:21:32.572Z,41.50
2023-03-26T04:22:38.020Z,42.37
2023-03-26T04:23:44.965Z,42.78
2023-03-26T04:24:51.693Z,42.22
2023-03-26T04:25:59.267Z,43.13
2023-03-26T04:27:04.660Z,40.75
2023-03-26T04:28:13.384Z,40.47
2023-03-26T04:29:19.827Z,42.05
2023-03-26T04:30:26.827Z,41.85
2023-03-26T04:31:32.421Z,42.28
2023-03-26T04:32:41.864Z,40.63
2023-03-26T04:33:48.350Z,44.13
2023-03-26T04:34:55.210Z,42.90
2023-03-26T04:36:04.015Z,42.78
2023-03-26T04:37:10.658Z,42.38
2023-03-26T04:38:18.290Z,41.13
2023-03-26T04:39:30.817Z,41.33
2023-03-26T04:40:38.942Z,43.13
2023-03-26T04:41:45.593Z,46.53
2023-03-26T04:42:50.985Z,48.75
2023-03-26T04:43:58.314Z,51.20
2023-03-26T04:45:09.812Z,48.87
2023-03-26T04:46:16.590Z,50.38
2023-03-26T04:47:25.423Z,53.05
2023-03-26T04:48:34.164Z,53.60
2023-03-26T04:49:39.497Z,53.88
2023-03-26T04:50:46.674Z,51.90
2023-03-26T04:51:52.263Z,52.53
2023-03-26T04:53:00.003Z,52.63
2023-03-26T04:54:05.657Z,52.47
2023-03-26T04:55:20.381Z,49.13
2023-03-26T04:56:34.679Z,48.43
2023-03-26T04:57:45.222Z,48.40
2023-03-26T04:58:51.850Z,53.13
2023-03-26T04:59:58.520Z,52.10
2023-03-26T05:01:09.850Z,53.80
2023-03-26T05:02:17.651Z,52.33
2023-03-26T05:03:22.947Z,54.15
2023-03-26T05:04:31.544Z,54.38
2023-03-26T05:05:36.862Z,51.70
2023-03-26T05:06:43.739Z,52.60
2023-03-26T05:07:49.073Z,51.87
2023-03-26T05:08:56.043Z,50.63
2023-03-26T05:10:03.700Z,52.38
2023-03-26T05:11:12.909Z,50.97
2023-03-26T05:12:18.388Z,52.22
2023-03-26T05:13:25.125Z,51.65
2023-03-26T05:14:30.423Z,48.88
2023-03-26T05:15:37.053Z,51.97
2023-03-26T05:16:43.067Z,51.38
2023-03-26T05:17:50.001Z,49.10
2023-03-26T05:18:55.598Z,50.70
2023-03-26T05:20:04.056Z,50.15
2023-03-26T05:21:09.702Z,50.72
2023-03-26T05:22:16.422Z,50.65
2023-03-26T05:23:23.734Z,48.45
2023-03-26T05:24:30.454Z,47.90
2023-03-26T05:25:36.376Z,47.58
2023-03-26T05:26:43.000Z,45.90
2023-03-26T05:27:48.792Z,46.45
2023-03-26T05:28:55.709Z,46.60
2023-03-26T05:30:03.914Z,46.03
2023-03-26T05:31:11.344Z,42.75
2023-03-26T05:32:16.652Z,45.15
2023-03-26T05:33:23.641Z,46.38
2023-03-26T05:34:30.814Z,42.45
2023-03-26T05:35:38.310Z,43.47
2023-03-26T05:36:45.645Z,43.15
2023-03-26T05:37:52.934Z,44.53
2023-03-26T05:38:59.589Z,42.28
2023-03-26T05:40:05.647Z,41.90
2023-03-26T05:41:13.337Z,42.53
2023-03-26T05:42:18.646Z,41.65
2023-03-26T05:43:25.296Z,40.28
2023-03-26T05:44:30.838Z,40.53
2023-03-26T05:45:37.455Z,35.90
2023-03-26T05:46:42.879Z,39.20
2023-03-26T05:47:51.139Z,38.05
2023-03-26T05:48:56.846Z,38.03
2023-03-26T05:50:03.552Z,37.20
2023-03-26T05:51:10.980Z,36.83
2023-03-26T05:52:20.530Z,37.47
2023-03-26T05:53:28.567Z,36.72
2023-03-26T05:54:34.225Z,36.88
2023-03-26T05:55:42.066Z,36.28
2023-03-26T05:56:47.443Z,37.10
2023-03-26T05:57:54.203Z,35.20
2023-03-26T05:58:59.561Z,36.17
2023-03-26T06:00:07.491Z,36.05
2023-03-26T06:01:18.368Z,37.13
2023-03-26T06:02:25.197Z,36.40
2023-03-26T06:03:30.817Z,36.50
2023-03-26T06:04:42.307Z,37.10
2023-03-26T06:05:47.728Z,37.17
2023-03-26T06:06:56.199Z,36.75
2023-03-26T06:08:01.574Z,35.42
2023-03-26T06:09:08.344Z,37.03
2023-03-26T06:10:14.609Z,36.13
2023-03-26T06:11:25.004Z,36.65
2023-03-26T06:12:30.734Z,36.47
2023-03-26T06:13:37.450Z,35.43
2023-03-26T06:14:44.260Z,35.53
2023-03-26T06:15:50.882Z,35.60
2023-03-26T06:16:56.271Z,36.65
2023-03-26T06:18:02.998Z,35.20
2023-03-26T06:19:08.430Z,35.47
2023-03-26T06:20:16.333Z,33.80
2023-03-26T06:21:21.671Z,34.25
2023-03-26T06:22:30.130Z,36.25
2023-03-26T06:23:35.790Z,32.67
2023-03-26T06:24:42.440Z,34.40
2023-03-26T06:25:47.871Z,36.30
2023-03-26T06:26:54.527Z,34.28
2023-03-26T06:27:59.879Z,34.65
2023-03-26T06:29:06.750Z,35.47
2023-03-26T06:30:13.324Z,33.78
2023-03-26T06:31:20.752Z,32.75
2023-03-26T06:32:26.308Z,33.40
2023-03-26T06:33:34.127Z,33.50
2023-03-26T06:34:39.454Z,33.20
2023-03-26T06:35:46.826Z,32.97
2023-03-26T06:36:54.140Z,33.53
2023-03-26T06:38:02.866Z,32.40
2023-03-26T06:39:08.417Z,31.42
2023-03-26T06:40:16.040Z,32.97
2023-03-26T06:41:21.481Z,31.58
2023-03-26T06:43:06.788Z,32.70
2023-03-26T06:43:54.855Z,36.08
2023-03-26T06:45:00.225Z,32.92
2023-03-26T06:46:07.320Z,32.58
2023-03-26T06:47:12.642Z,31.73
2023-03-26T06:48:19.407Z,31.30
2023-03-26T06:49:26.065Z,31.08
2023-03-26T06:50:31.440Z,30.60
2023-03-26T06:51:39.254Z,30.08
2023-03-26T06:52:45.991Z,29.80
2023-03-26T06:53:53.019Z,29.80
2023-03-26T06:54:59.765Z,30.52
2023-03-26T06:56:06.116Z,29.50
2023-03-26T06:57:14.595Z,29.27
2023-03-26T06:58:21.293Z,28.60
2023-03-26T06:59:26.675Z,28.37
2023-03-26T07:00:33.409Z,28.83
2023-03-26T07:01:40.172Z,29.17
2023-03-26T07:02:46.954Z,29.05
2023-03-26T07:03:53.688Z,26.65
2023-03-26T07:04:59.098Z,27.50
2023-03-26T07:06:05.722Z,27.25
2023-03-26T07:07:11.307Z,27.25
2023-03-26T07:08:18.081Z,27.70
2023-03-26T07:09:27.692Z,26.73
2023-03-26T07:10:33.376Z,27.43
2023-03-26T07:11:40.096Z,26.15
2023-03-26T07:12:46.103Z,26.00
2023-03-26T07:13:52.781Z,26.58
2023-03-26T07:15:00.214Z,26.10
2023-03-26T07:16:07.362Z,25.42
2023-03-26T07:17:12.816Z,26.95
2023-03-26T07:18:19.551Z,26.08
2023-03-26T07:19:26.398Z,24.98
2023-03-26T07:20:32.324Z,24.63
2023-03-26T07:21:39.584Z,24.80
2023-03-26T07:22:45.531Z,24.52
2023-03-26T07:23:55.045Z,23.70
2023-03-26T07:25:04.428Z,23.30
2023-03-26T07:26:22.529Z,23.23
2023-03-26T07:27:40.073Z,23.00
2023-03-26T07:29:04.024Z,23.98
2023-03-26T07:30:13.437Z,22.48
2023-03-26T07:31:29.612Z,22.75
2023-03-26T07:32:40.702Z,22.33
2023-03-26T07:33:52.792Z,21.83
2023-03-26T07:35:02.247Z,22.17
2023-03-26T07:36:19.028Z,22.33
2023-03-26T07:37:40.931Z,21.25
2023-03-26T07:38:55.704Z,22.23
2023-03-26T07:40:06.139Z,21.70
2023-03-26T07:41:15.495Z,22.75
2023-03-26T07:42:30.325Z,22.10
2023-03-26T07:44:03.649Z,21.40
2023-03-26T07:45:20.388Z,22.42
2023-03-26T07:46:31.511Z,22.70
2023-03-26T07:47:40.420Z,22.13
2023-03-26T07:48:49.294Z,21.00
2023-03-26T07:49:56.537Z,20.63
2023-03-26T07:51:04.440Z,21.13
2023-03-26T07:52:10.808Z,21.33
2023-03-26T07:53:17.910Z,21.60
2023-03-26T07:54:26.187Z,20.70
2023-03-26T07:55:35.161Z,21.45
2023-03-26T07:56:43.967Z,20.98
2023-03-26T07:58:01.256Z,21.97
2023-03-26T07:59:17.373Z,21.48
2023-03-26T08:00:24.538Z,20.33
2023-03-26T08:01:42.105Z,19.92
2023-03-26T08:03:18.385Z,20.83
2023-03-26T08:05:00.035Z,19.00
2023-03-26T08:06:13.165Z,19.63
2023-03-26T08:07:23.624Z,18.77
2023-03-26T08:08:34.706Z,19.70
2023-03-26T08:09:58.211Z,19.05
2023-03-26T08:11:15.777Z,18.97
2023-03-26T08:12:27.218Z,18.25
2023-03-26T08:13:39.293Z,18.60
2023-03-26T08:14:52.354Z,19.13
2023-03-26T08:16:04.216Z,18.63
2023-03-26T08:17:14.313Z,17.83
2023-03-26T08:18:28.974Z,18.35
2023-03-26T08:19:46.365Z,19.23
2023-03-26T08:20:55.227Z,18.13
2023-03-26T08:22:03.662Z,18.17
2023-03-26T08:23:15.407Z,17.93
2023-03-26T08:24:25.553Z,17.70
2023-03-26T08:25:35.179Z,17.58
2023-03-26T08:26:50.527Z,17.88
2023-03-26T08:28:10.745Z,18.58
2023-03-26T08:29:22.332Z,17.38
2023-03-26T08:30:29.858Z,17.33
2023-03-26T08:31:37.875Z,16.67
2023-03-26T08:32:43.833Z,17.60
2023-03-26T08:33:51.598Z,17.17
2023-03-26T08:34:58.971Z,17.40
2023-03-26T08:36:05.678Z,17.52
2023-03-26T08:37:11.768Z,17.60
2023-03-26T08:38:19.919Z,17.42
2023-03-26T08:39:25.234Z,17.55
2023-03-26T08:41:02.424Z,16.80
2023-03-26T08:42:37.782Z,16.95
2023-03-26T08:44:21.930Z,15.98
2023-03-26T08:45:55.960Z,15.27
2023-03-26T08:47:28.948Z,15.50
2023-03-26T08:49:07.529Z,16.67
2023-03-26T08:50:39.657Z,16.08
2023-03-26T08:52:28.822Z,16.05
2023-03-26T08:54:09.363Z,17.65
2023-03-26T08:55:47.014Z,17.42
2023-03-26T08:57:01.147Z,17.75
2023-03-26T08:58:46.253Z,17.08
2023-03-26T09:00:18.788Z,16.08
2023-03-26T09:02:02.801Z,16.92
2023-03-26T09:03:37.240Z,15.25
2023-03-26T09:05:24.409Z,16.03
2023-03-26T09:06:48.386Z,15.02
2023-03-26T09:08:14.641Z,15.48
2023-03-26T09:10:03.222Z,15.30
2023-03-26T09:11:42.477Z,13.95
2023-03-26T09:13:10.420Z,16.05
2023-03-26T09:14:59.236Z,14.93
2023-03-26T09:28:05.087Z,13.25
2023-03-26T09:31:35.141Z,14.68
2023-03-26T09:56:29.861Z,13.85
2023-03-26T09:57:52.778Z,13.23
2023-03-26T09:59:18.402Z,12.50
2023-03-26T10:00:31.203Z,13.43
2023-03-26T10:01:42.529Z,12.98
2023-03-26T10:03:19.096Z,12.10
2023-03-26T10:05:02.373Z,12.73
2023-03-26T10:06:28.991Z,12.55
2023-03-26T10:07:52.474Z,12.50
2023-03-26T10:09:10.889Z,12.93
2023-03-26T10:10:24.316Z,12.55
2023-03-26T10:11:41.278Z,12.10
2023-03-26T10:12:49.440Z,12.20
2023-03-26T10:14:05.289Z,12.15
2023-03-26T10:15:26.512Z,12.70
2023-03-26T10:16:41.181Z,12.80
2023-03-26T10:17:57.700Z,12.23
2023-03-26T10:19:27.790Z,12.40
2023-03-26T10:20:53.204Z,11.82
2023-03-26T10:22:06.890Z,13.23
2023-03-26T10:23:23.686Z,12.70
2023-03-26T10:24:50.800Z,12.07
2023-03-26T10:26:10.662Z,11.87
2023-03-26T10:27:26.553Z,12.02
2023-03-26T10:28:45.721Z,12.05
2023-03-26T10:30:21.700Z,12.77
2023-03-26T10:31:49.727Z,12.05
2023-03-26T10:33:04.749Z,12.38
2023-03-26T10:34:28.375Z,11.55
2023-03-26T10:35:46.292Z,11.85
2023-03-26T10:36:57.366Z,13.38
2023-03-26T10:38:12.795Z,12.67
2023-03-26T13:06:59.095Z,12.88
2023-03-26T13:08:26.230Z,13.68
2023-03-26T13:09:58.552Z,14.00
2023-03-26T13:11:08.849Z,13.87
2023-03-26T13:12:24.584Z,13.73
2023-03-26T13:13:59.582Z,14.13
2023-03-26T13:15:19.785Z,12.85
2023-03-26T13:16:30.352Z,13.40
2023-03-26T13:17:39.430Z,13.32
2023-03-26T13:18:49.144Z,12.98
2023-03-26T13:20:02.600Z,12.27
2023-03-26T13:21:14.727Z,12.98
2023-03-26T13:22:29.285Z,14.20
2023-03-26T13:23:43.595Z,14.17
2023-03-26T13:24:55.128Z,14.10
2023-03-26T13:26:07.629Z,13.52
2023-03-26T13:27:25.364Z,14.20
2023-03-26T13:28:35.955Z,14.90
2023-03-26T13:29:48.029Z,15.68
2023-03-26T13:31:00.824Z,14.63
2023-03-26T13:32:10.806Z,14.48
2023-03-26T13:33:29.351Z,14.15
2023-03-26T13:34:43.232Z,14.40
2023-03-26T13:35:52.469Z,14.20
2023-03-26T13:37:07.331Z,13.85
2023-03-26T13:38:17.304Z,14.00
2023-03-26T13:39:30.064Z,14.77
2023-03-26T13:40:42.429Z,14.85
2023-03-26T13:41:56.471Z,14.73
2023-03-26T13:43:14.232Z,14.40
2023-03-26T13:44:25.773Z,15.30
2023-03-26T13:45:44.714Z,14.95
2023-03-26T13:46:52.761Z,14.32
2023-03-26T13:48:01.686Z,14.47
2023-03-26T13:49:14.392Z,13.75
2023-03-26T13:50:25.794Z,14.85
2023-03-26T13:51:36.836Z,14.43
2023-03-26T13:52:47.289Z,14.55
2023-03-26T13:53:59.594Z,14.20
2023-03-26T13:55:23.473Z,13.70
2023-03-26T13:56:34.554Z,14.45
2023-03-26T13:57:44.014Z,15.40
2023-03-26T13:58:54.314Z,14.30
2023-03-26T14:00:02.949Z,13.80
2023-03-26T14:01:10.768Z,14.98
2023-03-26T14:02:23.662Z,14.85
2023-03-26T14:03:32.203Z,14.68
2023-03-26T14:04:42.018Z,14.50
2023-03-26T14:05:50.888Z,14.30
2023-03-26T14:07:02.382Z,15.07
2023-03-26T14:08:12.866Z,15.02
2023-03-26T14:09:26.571Z,14.38
2023-03-26T14:10:35.770Z,15.30
2023-03-26T14:11:52.699Z,15.27
2023-03-26T14:13:02.419Z,14.65
2023-03-26T14:14:12.074Z,14.90
2023-03-26T14:15:21.515Z,14.60
2023-03-26T14:16:32.277Z,14.98
2023-03-26T14:17:42.580Z,15.25
2023-03-26T14:18:53.102Z,15.98
2023-03-26T14:20:57.914Z,14.90
2023-03-26T14:22:17.465Z,15.90
2023-03-26T14:23:36.802Z,15.88
2023-03-26T14:25:21.221Z,15.77
2023-03-26T14:26:38.942Z,14.93
2023-03-26T14:27:52.294Z,14.70
2023-03-26T14:29:35.082Z,15.20
2023-03-26T14:30:58.086Z,15.77
2023-03-26T14:32:24.429Z,15.45
2023-03-26T14:33:54.231Z,15.10
2023-03-26T14:35:28.480Z,15.05
2023-03-26T14:36:56.245Z,14.95
2023-03-26T14:38:29.978Z,16.45
2023-03-26T14:39:57.509Z,15.70
2023-03-26T14:41:14.599Z,15.50
2023-03-26T14:42:27.783Z,15.00
2023-03-26T14:43:52.628Z,15.65
2023-03-26T14:45:25.562Z,21.77
2023-03-26T14:46:42.444Z,24.10
2023-03-26T14:47:53.171Z,18.90
2023-03-26T14:49:39.810Z,16.92
2023-03-26T14:50:58.048Z,15.45
2023-03-26T14:52:10.726Z,15.48
2023-03-26T14:53:25.880Z,14.60
2023-03-26T14:54:34.947Z,15.77
2023-03-26T14:56:04.286Z,15.65
2023-03-26T14:57:30.254Z,15.30
2023-03-26T14:59:14.769Z,15.60
2023-03-26T15:01:14.343Z,14.90
2023-03-26T15:02:52.803Z,15.38
2023-03-26T15:04:39.964Z,15.20
2023-03-26T15:06:12.437Z,16.00
2023-03-26T15:07:55.235Z,15.90
2023-03-26T15:09:39.006Z,14.13
2023-03-26T15:11:10.858Z,15.70
2023-03-26T15:12:29.904Z,14.40
2023-03-26T15:14:01.069Z,16.20
2023-03-26T15:15:37.951Z,15.45
2023-03-26T15:17:11.587Z,14.77
2023-03-26T15:18:51.905Z,14.93
2023-03-26T15:20:28.151Z,16.30
2023-03-26T15:22:01.434Z,16.05
2023-03-26T15:23:49.000Z,16.85
2023-03-26T15:25:45.100Z,15.73
2023-03-26T15:27:23.533Z,15.55
2023-03-26T15:29:20.629Z,16.67
2023-03-26T15:31:05.042Z,16.92
2023-03-26T15:32:41.991Z,17.13
2023-03-26T15:34:21.805Z,17.25
2023-03-26T15:35:52.627Z,17.42
2023-03-26T15:37:31.440Z,18.15
2023-03-26T15:39:28.744Z,17.65
2023-03-26T15:40:47.305Z,17.00
2023-03-26T15:41:57.479Z,17.37
2023-03-26T15:43:11.139Z,16.42
2023-03-26T15:44:50.946Z,16.52
2023-03-26T15:46:26.332Z,17.77
2023-03-26T15:47:43.361Z,17.92
2023-03-26T15:48:59.915Z,17.55
2023-03-26T15:50:29.589Z,17.23
2023-03-26T15:51:50.859Z,16.40
2023-03-26T15:52:59.350Z,17.33
2023-03-26T15:54:11.560Z,16.92
2023-03-26T15:55:29.262Z,15.70
2023-03-26T15:57:05.360Z,17.25
2023-03-26T15:58:17.155Z,16.63
2023-03-26T15:59:38.548Z,16.83
2023-03-26T16:00:58.254Z,16.50
2023-03-26T16:02:17.666Z,16.00
2023-03-26T16:03:32.384Z,16.00
2023-03-26T16:04:50.794Z,15.73
2023-03-26T16:06:17.341Z,18.17
2023-03-26T16:08:00.195Z,16.92
2023-03-26T16:09:17.951Z,16.60
2023-03-26T16:10:31.900Z,20.02
2023-03-26T16:11:52.278Z,20.30
2023-03-26T16:13:14.992Z,21.20
2023-03-26T16:14:24.067Z,20.75
2023-03-26T16:15:34.779Z,20.80
2023-03-26T16:17:00.154Z,20.92
2023-03-26T16:18:42.922Z,20.30
2023-03-26T16:20:04.599Z,20.58
2023-03-26T16:21:55.900Z,18.60
2023-03-26T16:23:05.101Z,18.80
2023-03-26T16:24:32.883Z,18.63
2023-03-26T16:25:40.010Z,19.30
2023-03-26T16:26:58.719Z,19.27
2023-03-26T16:28:25.552Z,19.90
2023-03-26T16:29:32.679Z,19.80
2023-03-26T16:30:39.809Z,19.90
2023-03-26T16:32:14.347Z,18.80
2023-03-26T16:33:24.875Z,20.52
2023-03-26T16:34:35.690Z,17.88
2023-03-26T16:36:11.263Z,17.60
2023-03-26T16:37:45.158Z,19.50
2023-03-26T16:38:53.326Z,19.55
2023-03-26T16:40:33.339Z,18.83
2023-03-26T16:42:05.602Z,17.60
2023-03-26T16:43:37.459Z,18.83
2023-03-26T16:44:47.797Z,18.55
2023-03-26T16:45:56.239Z,21.85
2023-03-26T16:47:07.144Z,20.73
2023-03-26T16:48:25.231Z,40.47
2023-03-26T16:49:48.357Z,45.60
2023-03-26T16:51:20.155Z,35.40
2023-03-26T16:52:35.251Z,28.38
2023-03-26T16:53:44.978Z,24.08
2023-03-26T16:54:55.508Z,20.67
2023-03-26T16:56:05.773Z,20.08
2023-03-26T16:57:20.932Z,20.40
2023-03-26T16:58:35.105Z,19.17
2023-03-26T17:00:05.963Z,19.02
2023-03-26T17:01:22.799Z,18.75
2023-03-26T17:02:37.902Z,19.00
2023-03-26T17:03:53.659Z,18.08
2023-03-26T17:05:05.179Z,17.42
2023-03-26T17:06:24.815Z,19.10
2023-03-26T17:07:35.396Z,20.50
2023-03-26T17:08:50.754Z,22.33
2023-03-26T17:10:05.172Z,22.17
2023-03-26T17:11:19.980Z,22.20
2023-03-26T17:12:32.862Z,25.70
2023-03-26T17:13:46.097Z,23.05
2023-03-26T17:15:09.440Z,22.97
2023-03-26T17:16:19.665Z,20.73
2023-03-26T17:17:44.597Z,19.23
2023-03-26T17:18:57.986Z,18.38
2023-03-26T17:20:10.435Z,20.40
2023-03-26T17:21:20.820Z,21.23
2023-03-26T17:22:39.389Z,21.15
2023-03-26T17:23:58.227Z,19.35
2023-03-26T17:25:07.268Z,20.48
2023-03-26T17:26:20.246Z,19.20
2023-03-26T17:27:35.481Z,18.50
2023-03-26T17:28:51.351Z,18.83
2023-03-26T17:30:34.102Z,18.48
2023-03-26T17:31:45.662Z,19.35
2023-03-26T17:33:02.076Z,17.88
2023-03-26T17:34:48.780Z,17.70
2023-03-26T17:36:26.144Z,17.60
2023-03-26T17:37:35.305Z,18.38
2023-03-26T17:39:06.585Z,18.63
2023-03-26T17:40:52.807Z,18.98
2023-03-26T17:42:15.163Z,17.87
2023-03-26T17:43:47.887Z,18.98
2023-03-26T17:44:53.646Z,18.33
2023-03-26T17:46:03.202Z,18.08
2023-03-26T17:47:16.297Z,17.42
2023-03-26T17:48:25.401Z,18.50
2023-03-26T17:49:34.873Z,19.20
2023-03-26T17:50:48.377Z,19.83
2023-03-26T17:51:59.477Z,19.38
2023-03-26T17:53:07.382Z,20.95
2023-03-26T17:54:21.991Z,20.37
2023-03-26T17:55:32.441Z,19.92
2023-03-26T17:56:39.703Z,17.35
2023-03-26T17:57:48.263Z,21.15
2023-03-26T17:59:00.155Z,21.70
2023-03-26T18:00:24.976Z,20.85
2023-03-26T18:01:35.098Z,21.15
2023-03-26T18:02:44.212Z,20.02
2023-03-26T18:03:53.376Z,19.83
2023-03-26T18:04:59.099Z,20.23
2023-03-26T18:06:10.117Z,21.47
2023-03-26T18:07:53.833Z,20.90
2023-03-26T18:09:10.541Z,22.10
2023-03-26T18:10:41.431Z,22.35
2023-03-26T18:12:27.913Z,21.48
2023-03-26T18:13:49.038Z,21.02
2023-03-26T18:15:31.340Z,21.17
2023-03-26T18:16:40.948Z,20.85
2023-03-26T18:17:49.507Z,21.15
2023-03-26T18:18:58.595Z,21.05
2023-03-26T18:20:11.412Z,20.43
2023-03-26T18:21:23.550Z,21.55
2023-03-26T18:22:32.840Z,21.17
2023-03-26T18:23:41.049Z,21.45
2023-03-26T18:24:49.404Z,22.20
2023-03-26T18:26:00.596Z,21.58
2023-03-26T18:27:11.499Z,21.17
2023-03-26T18:28:19.514Z,20.40
2023-03-26T18:29:26.078Z,21.13
2023-03-26T18:30:33.137Z,20.15
2023-03-26T18:31:39.264Z,19.67
2023-03-26T18:32:53.883Z,20.30
2023-03-26T18:34:01.506Z,20.20
2023-03-26T18:35:18.507Z,20.42
2023-03-26T18:36:25.951Z,19.30
2023-03-26T18:37:36.104Z,18.40
2023-03-26T18:38:43.021Z,19.65
2023-03-26T18:40:00.473Z,20.00
2023-03-26T18:41:07.421Z,20.50
2023-03-26T18:42:22.809Z,20.10
2023-03-26T18:43:35.162Z,19.20
2023-03-26T18:44:42.654Z,18.85
2023-03-26T18:45:50.257Z,20.48
2023-03-26T18:46:57.883Z,20.52
2023-03-26T18:48:07.617Z,19.92
2023-03-26T18:49:14.892Z,21.02
2023-03-26T18:50:31.816Z,19.75
2023-03-26T18:51:46.449Z,20.67